Time;durP1;ratioP1;P1;durP2;ratioP2;P2;SDS_P1;SDS_P2;PMS_P1;PMS_P2;Temp;Humidity;BMP_temperature;BMP_pressure;BME280_temperature;BME280_humidity;BME280_pressure;Samples;Min_cycle;Max_cycle;Signal;HPM_P1;HPM_P2
2021/03/09 00:00:39;;;;;;;15.88;9.52;;;1.40;57.80;;;;;;5032904;28;20238;-80
2021/03/09 00:03:06;;;;;;;13.80;9.90;;;1.40;57.50;;;;;;5024717;28;20290;-80
2021/03/09 00:05:32;;;;;;;15.13;9.40;;;1.40;58.00;;;;;;5031864;28;20222;-79
2021/03/09 00:07:59;;;;;;;15.23;10.35;;;1.30;58.10;;;;;;5029027;28;20200;-80
2021/03/09 00:10:25;;;;;;;17.92;10.32;;;1.30;58.50;;;;;;5022746;28;20218;-80
2021/03/09 00:12:52;;;;;;;16.25;10.00;;;1.30;58.40;;;;;;5034938;28;20227;-80
2021/03/09 00:15:19;;;;;;;14.55;9.60;;;1.30;58.40;;;;;;5034780;28;20220;-79
2021/03/09 00:17:46;;;;;;;17.08;10.80;;;1.30;58.70;;;;;;5031553;28;20203;-80
2021/03/09 00:20:13;;;;;;;14.75;9.88;;;1.30;59.30;;;;;;5023357;28;20242;-80
2021/03/09 00:22:40;;;;;;;17.13;10.77;;;1.40;58.80;;;;;;5024131;28;20227;-80
2021/03/09 00:25:08;;;;;;;14.15;9.68;;;1.30;58.50;;;;;;5033679;28;20218;-79
2021/03/09 00:27:34;;;;;;;14.65;10.10;;;1.20;59.20;;;;;;5035455;28;20203;-78
2021/03/09 00:30:01;;;;;;;12.27;8.88;;;1.20;59.70;;;;;;5035370;28;20200;-80
2021/03/09 00:32:28;;;;;;;21.02;10.98;;;1.20;59.70;;;;;;5037898;28;20212;-79
2021/03/09 00:34:54;;;;;;;15.10;9.38;;;1.30;59.50;;;;;;5032545;28;20227;-80
2021/03/09 00:37:21;;;;;;;17.77;11.18;;;1.30;60.00;;;;;;5027496;28;20247;-80
2021/03/09 00:39:47;;;;;;;14.68;9.43;;;1.20;60.20;;;;;;5028248;28;20283;-80
2021/03/09 00:42:14;;;;;;;13.45;9.75;;;1.10;60.20;;;;;;5033963;28;20227;-80
2021/03/09 00:44:40;;;;;;;13.90;9.50;;;1.10;61.00;;;;;;5028342;28;20309;-80
2021/03/09 00:47:07;;;;;;;17.05;10.43;;;1.00;60.90;;;;;;5027651;28;20204;-80
2021/03/09 00:49:34;;;;;;;16.17;10.10;;;1.10;61.00;;;;;;5028873;28;20204;-80
2021/03/09 00:52:01;;;;;;;16.05;10.65;;;1.00;60.90;;;;;;5028464;28;20245;-79
2021/03/09 00:54:27;;;;;;;16.92;10.35;;;1.00;61.20;;;;;;5028376;28;20223;-80
2021/03/09 00:56:54;;;;;;;19.20;10.73;;;1.10;62.10;;;;;;5026548;28;20703;-80
2021/03/09 00:59:20;;;;;;;12.82;9.63;;;1.10;61.50;;;;;;5027899;28;20204;-80
2021/03/09 01:01:46;;;;;;;16.63;10.65;;;1.10;61.20;;;;;;5028021;28;20274;-80
2021/03/09 01:04:13;;;;;;;16.23;9.85;;;1.10;61.60;;;;;;5019999;28;20211;-81
2021/03/09 01:06:40;;;;;;;18.17;10.70;;;0.90;62.10;;;;;;5022064;28;20235;-78
2021/03/09 01:09:06;;;;;;;18.65;10.55;;;1.00;62.20;;;;;;5020268;28;20224;-78
2021/03/09 01:11:33;;;;;;;17.15;10.00;;;0.90;62.50;;;;;;5025953;28;20269;-79
2021/03/09 01:13:59;;;;;;;20.20;11.07;;;0.90;63.10;;;;;;5024197;28;20204;-79
2021/03/09 01:16:26;;;;;;;14.27;10.18;;;0.90;63.20;;;;;;5015863;28;20696;-79
2021/03/09 01:18:52;;;;;;;15.48;10.02;;;0.80;63.50;;;;;;5017520;28;20291;-79
2021/03/09 01:21:19;;;;;;;17.30;11.05;;;0.80;63.60;;;;;;5017875;28;20242;-79
2021/03/09 01:23:46;;;;;;;16.17;9.60;;;0.70;63.90;;;;;;5015153;28;20331;-78
2021/03/09 01:26:12;;;;;;;25.42;10.73;;;0.60;64.20;;;;;;5015264;28;20208;-79
2021/03/09 01:28:39;;;;;;;17.13;10.55;;;0.60;65.00;;;;;;5015339;28;20290;-79
2021/03/09 01:31:05;;;;;;;16.17;10.70;;;0.50;65.40;;;;;;5015142;28;20223;-79
2021/03/09 01:33:31;;;;;;;15.52;10.00;;;0.50;66.50;;;;;;5015190;28;20267;-80
2021/03/09 01:35:58;;;;;;;15.73;9.77;;;0.50;66.50;;;;;;5015821;28;20306;-80
2021/03/09 01:38:24;;;;;;;18.67;9.77;;;0.50;67.20;;;;;;5020010;28;20247;-79
2021/03/09 01:40:52;;;;;;;20.15;10.90;;;0.50;67.50;;;;;;5035754;28;20208;-81
2021/03/09 01:43:18;;;;;;;18.83;10.20;;;0.50;67.60;;;;;;5033998;28;20299;-80
2021/03/09 01:45:45;;;;;;;19.35;10.80;;;0.50;68.70;;;;;;5036279;28;20184;-82
2021/03/09 01:48:14;;;;;;;16.35;10.38;;;0.50;68.40;;;;;;5038723;28;20192;-82
2021/03/09 01:50:43;;;;;;;16.10;10.20;;;0.50;68.80;;;;;;5038660;28;20192;-82
2021/03/09 01:53:09;;;;;;;16.23;9.77;;;0.50;69.20;;;;;;5038018;28;20227;-81
2021/03/09 01:55:37;;;;;;;17.00;10.35;;;0.60;69.30;;;;;;5030151;28;20763;-79
2021/03/09 01:58:08;;;;;;;16.58;10.38;;;0.60;69.30;;;;;;5030999;28;20207;-81
2021/03/09 02:00:34;;;;;;;18.35;10.13;;;0.60;69.30;;;;;;5031138;28;20200;-79
2021/03/09 02:03:01;;;;;;;17.58;9.93;;;0.50;69.20;;;;;;5030818;28;20270;-79
2021/03/09 02:05:27;;;;;;;15.57;10.55;;;0.40;69.10;;;;;;5023956;28;20262;-78
2021/03/09 02:07:53;;;;;;;19.33;11.07;;;0.40;69.10;;;;;;5018019;28;20259;-79
2021/03/09 02:10:21;;;;;;;20.13;10.27;;;0.40;69.10;;;;;;5017829;28;20709;-79
2021/03/09 02:12:58;;;;;;;12.50;9.40;;;0.50;69.80;;;;;;5020264;28;20271;-80
2021/03/09 02:15:34;;;;;;;20.40;10.63;;;0.40;69.50;;;;;;5019986;28;20231;-79
2021/03/09 02:18:07;;;;;;;18.48;10.30;;;0.40;70.00;;;;;;5022799;28;20298;-79
2021/03/09 02:21:10;;;;;;;16.30;10.02;;;0.30;70.50;;;;;;5019354;28;20235;-80
2021/03/09 02:24:12;;;;;;;17.08;10.30;;;0.40;71.30;;;;;;5021243;28;20227;-79
2021/03/09 02:26:59;;;;;;;18.05;11.48;;;0.40;71.70;;;;;;5020985;28;20660;-80
2021/03/09 02:29:50;;;;;;;17.95;11.50;;;0.30;71.10;;;;;;5019935;28;20265;-79
2021/03/09 02:32:22;;;;;;;17.27;10.00;;;0.30;71.30;;;;;;5006374;28;20238;-79
2021/03/09 02:34:53;;;;;;;18.02;10.82;;;0.30;71.50;;;;;;5019834;28;20275;-80
2021/03/09 02:37:23;;;;;;;20.58;10.15;;;0.30;71.50;;;;;;5019489;28;20224;-79
2021/03/09 02:39:50;;;;;;;20.13;11.10;;;0.30;72.20;;;;;;5020355;28;20240;-81
2021/03/09 02:42:23;;;;;;;16.52;10.02;;;0.30;72.10;;;;;;5018127;28;20319;-80
2021/03/09 02:44:52;;;;;;;19.77;10.07;;;0.20;72.30;;;;;;5019548;28;20640;-81
2021/03/09 02:47:21;;;;;;;17.45;11.05;;;0.20;72.60;;;;;;5020533;28;20246;-80
2021/03/09 02:49:50;;;;;;;17.13;10.30;;;0.20;73.20;;;;;;5019251;28;20294;-79
2021/03/09 02:52:20;;;;;;;19.05;10.70;;;0.20;73.20;;;;;;5019972;28;20274;-80
2021/03/09 02:54:47;;;;;;;17.30;10.40;;;0.30;73.30;;;;;;5016748;28;20244;-79
2021/03/09 02:57:16;;;;;;;18.55;11.13;;;0.20;73.20;;;;;;5015570;28;20289;-79
2021/03/09 02:59:44;;;;;;;21.75;12.27;;;0.30;73.40;;;;;;5014912;28;20271;-79
2021/03/09 03:02:13;;;;;;;18.77;11.88;;;0.30;73.30;;;;;;5014096;28;20668;-79
2021/03/09 03:04:44;;;;;;;16.75;10.70;;;0.20;73.20;;;;;;5014348;28;20216;-79
2021/03/09 03:07:13;;;;;;;18.92;11.18;;;0.20;74.10;;;;;;5014235;28;20280;-79
2021/03/09 03:09:40;;;;;;;20.60;10.60;;;0.20;73.90;;;;;;5013710;28;20266;-79
2021/03/09 03:12:07;;;;;;;16.98;11.38;;;0.20;73.80;;;;;;5013228;28;20723;-79
2021/03/09 03:14:36;;;;;;;21.38;12.10;;;0.20;73.50;;;;;;5012857;28;20295;-81
2021/03/09 03:17:03;;;;;;;23.27;11.95;;;0.20;73.90;;;;;;5012741;28;20259;-79
2021/03/09 03:19:31;;;;;;;18.45;11.82;;;0.20;74.20;;;;;;5013033;28;20204;-79
2021/03/09 03:22:00;;;;;;;21.60;11.98;;;0.10;74.10;;;;;;5012472;28;20307;-79
2021/03/09 03:24:27;;;;;;;22.50;12.38;;;0.10;74.60;;;;;;5013074;28;20295;-78
2021/03/09 03:26:55;;;;;;;17.70;11.43;;;0.10;74.90;;;;;;5017725;28;20254;-78
2021/03/09 03:29:22;;;;;;;17.33;11.63;;;0.10;74.70;;;;;;5029458;28;20699;-79
2021/03/09 03:31:49;;;;;;;21.35;11.77;;;0.10;74.30;;;;;;5028837;28;20219;-79
2021/03/09 03:34:16;;;;;;;20.55;12.38;;;0.00;74.60;;;;;;5023343;28;20291;-78
2021/03/09 03:36:42;;;;;;;19.75;10.55;;;0.00;75.20;;;;;;5013912;28;20310;-78
2021/03/09 03:39:10;;;;;;;20.40;12.07;;;0.00;76.10;;;;;;5012877;28;20294;-79
2021/03/09 03:41:36;;;;;;;23.40;12.57;;;0.00;76.30;;;;;;5012295;28;20294;-78
2021/03/09 03:44:04;;;;;;;22.83;12.40;;;0.00;76.30;;;;;;5012550;28;20207;-78
2021/03/09 03:46:30;;;;;;;20.63;11.32;;;0.00;77.20;;;;;;5012577;28;20290;-78
2021/03/09 03:48:57;;;;;;;22.02;12.50;;;0.00;77.20;;;;;;5012834;28;20732;-78
2021/03/09 03:51:32;;;;;;;21.80;12.25;;;0.00;77.20;;;;;;5013340;28;20235;-80
2021/03/09 03:54:06;;;;;;;18.40;12.75;;;0.00;77.20;;;;;;5013200;28;20648;-78
2021/03/09 03:56:40;;;;;;;24.08;13.13;;;0.00;77.20;;;;;;5012491;28;20643;-78
2021/03/09 03:59:10;;;;;;;23.52;13.23;;;0.00;77.20;;;;;;5020437;28;20211;-78
2021/03/09 04:01:38;;;;;;;20.67;11.55;;;0.00;77.20;;;;;;5032162;28;20180;-80
2021/03/09 04:04:08;;;;;;;20.35;12.02;;;-0.10;77.70;;;;;;5020635;28;20203;-78
2021/03/09 04:06:37;;;;;;;20.08;11.73;;;-0.10;78.30;;;;;;5017784;28;20238;-79
2021/03/09 04:09:05;;;;;;;21.38;12.88;;;-0.10;78.20;;;;;;5015467;28;20296;-78
2021/03/09 04:11:33;;;;;;;22.15;12.95;;;-0.20;78.90;;;;;;5016876;28;20678;-78
2021/03/09 04:14:02;;;;;;;22.23;12.63;;;-0.20;79.60;;;;;;5012523;28;20299;-78
2021/03/09 04:16:30;;;;;;;23.45;13.38;;;-0.10;79.40;;;;;;5013408;28;20231;-79
2021/03/09 04:18:59;;;;;;;20.75;11.48;;;-0.20;79.90;;;;;;5012813;28;20208;-79
2021/03/09 04:21:27;;;;;;;24.80;13.40;;;-0.20;80.10;;;;;;5011995;28;20737;-78
2021/03/09 04:23:54;;;;;;;21.88;13.75;;;-0.20;80.20;;;;;;5014416;28;20304;-79
2021/03/09 04:26:22;;;;;;;21.15;12.60;;;-0.20;81.10;;;;;;5014273;28;20294;-78
2021/03/09 04:28:49;;;;;;;20.70;12.70;;;-0.30;81.00;;;;;;5012621;28;20624;-80
2021/03/09 04:31:18;;;;;;;21.95;12.82;;;-0.30;81.60;;;;;;5012847;28;20287;-78
2021/03/09 04:33:45;;;;;;;26.10;12.88;;;-0.20;82.40;;;;;;5012958;28;20243;-79
2021/03/09 04:36:13;;;;;;;20.95;13.10;;;-0.20;81.90;;;;;;5003876;28;20224;-78
2021/03/09 04:38:40;;;;;;;24.02;14.15;;;-0.20;82.10;;;;;;4994124;28;20732;-78
2021/03/09 04:41:07;;;;;;;24.25;13.52;;;-0.30;82.00;;;;;;5010647;28;20192;-81
2021/03/09 04:43:34;;;;;;;26.52;14.00;;;-0.40;82.50;;;;;;5029119;28;20251;-78
2021/03/09 04:46:01;;;;;;;20.85;12.95;;;-0.40;83.00;;;;;;5037482;28;20192;-79
2021/03/09 04:48:30;;;;;;;25.65;14.00;;;-0.40;83.50;;;;;;5037204;28;20220;-82
2021/03/09 04:51:01;;;;;;;25.40;13.50;;;-0.40;84.10;;;;;;5037493;28;20203;-80
2021/03/09 04:53:28;;;;;;;22.10;13.00;;;-0.40;84.20;;;;;;5023482;28;20227;-78
2021/03/09 04:55:57;;;;;;;21.40;13.05;;;-0.40;84.70;;;;;;5012248;28;20314;-79
2021/03/09 04:58:23;;;;;;;26.45;13.55;;;-0.40;85.00;;;;;;4993975;28;20583;-79
2021/03/09 05:00:50;;;;;;;25.27;14.70;;;-0.40;85.00;;;;;;4994798;28;20205;-81
2021/03/09 05:03:16;;;;;;;27.65;14.05;;;-0.40;85.00;;;;;;5014933;28;20225;-80
2021/03/09 05:05:44;;;;;;;25.00;13.52;;;-0.40;85.00;;;;;;5013788;28;20235;-81
2021/03/09 05:08:10;;;;;;;25.92;12.77;;;-0.40;85.00;;;;;;5014825;28;20205;-79
2021/03/09 05:10:37;;;;;;;23.65;13.32;;;-0.40;85.00;;;;;;5003098;28;20209;-78
2021/03/09 05:13:05;;;;;;;24.27;13.00;;;-0.40;85.00;;;;;;5011116;28;20224;-79
2021/03/09 05:15:31;;;;;;;22.85;13.05;;;-0.40;85.00;;;;;;5012704;28;20281;-79
2021/03/09 05:17:58;;;;;;;23.30;14.32;;;-0.40;85.00;;;;;;5015688;28;20235;-79
2021/03/09 05:20:24;;;;;;;25.25;14.32;;;-0.40;85.00;;;;;;5016834;28;20223;-80
2021/03/09 05:22:52;;;;;;;30.15;14.77;;;-0.40;85.00;;;;;;5016186;28;20837;-79
2021/03/09 05:25:18;;;;;;;25.52;15.10;;;-0.40;85.00;;;;;;5013289;28;20751;-79
2021/03/09 05:27:47;;;;;;;23.65;14.20;;;-0.40;85.00;;;;;;4996580;28;20615;-79
2021/03/09 05:30:15;;;;;;;31.70;14.23;;;-0.40;85.00;;;;;;4997946;28;20284;-79
2021/03/09 05:32:42;;;;;;;28.00;15.45;;;-0.40;85.00;;;;;;5001025;28;20318;-79
2021/03/09 05:35:09;;;;;;;24.55;13.52;;;-0.40;85.00;;;;;;5019487;28;20205;-83
2021/03/09 05:37:36;;;;;;;21.90;13.23;;;-0.40;85.40;;;;;;5016935;28;20216;-79
2021/03/09 05:40:04;;;;;;;25.92;14.13;;;-0.40;85.30;;;;;;4996306;28;20201;-79
2021/03/09 05:42:31;;;;;;;26.52;13.70;;;-0.40;85.10;;;;;;4995352;28;20236;-79
2021/03/09 05:44:58;;;;;;;29.05;14.98;;;-0.40;85.00;;;;;;4997429;28;20248;-79
2021/03/09 05:47:24;;;;;;;27.70;14.98;;;-0.30;85.10;;;;;;5003473;28;20339;-79
2021/03/09 05:49:51;;;;;;;24.17;15.57;;;-0.30;85.10;;;;;;4999071;28;20287;-79
2021/03/09 05:52:18;;;;;;;23.67;14.82;;;-0.30;85.10;;;;;;4998592;28;20275;-80
2021/03/09 05:54:45;;;;;;;26.30;16.00;;;-0.30;85.10;;;;;;5000841;28;20299;-79
2021/03/09 05:57:13;;;;;;;24.73;14.30;;;-0.20;85.20;;;;;;5001394;28;20283;-80
2021/03/09 05:59:39;;;;;;;30.60;16.15;;;-0.20;85.20;;;;;;5004090;28;20700;-81
2021/03/09 06:02:06;;;;;;;29.25;16.17;;;-0.20;84.10;;;;;;5001241;28;20320;-79
2021/03/09 06:04:33;;;;;;;21.67;14.10;;;-0.10;83.70;;;;;;4997056;28;20316;-80
2021/03/09 06:07:00;;;;;;;22.40;14.38;;;-0.10;83.50;;;;;;4997310;28;20200;-80
2021/03/09 06:09:38;;;;;;;25.25;15.05;;;-0.10;83.10;;;;;;4998565;28;20232;-80
2021/03/09 06:12:17;;;;;;;25.02;14.68;;;-0.10;82.80;;;;;;4997304;28;20258;-82
2021/03/09 06:14:46;;;;;;;25.67;14.75;;;-0.10;82.50;;;;;;4996093;28;20204;-79
2021/03/09 06:17:23;;;;;;;28.45;16.13;;;0.00;82.30;;;;;;4997582;28;20259;-78
2021/03/09 06:19:51;;;;;;;23.05;14.88;;;0.00;82.30;;;;;;4996903;28;20192;-79
2021/03/09 06:22:19;;;;;;;26.25;15.30;;;0.00;82.00;;;;;;4997739;28;20320;-79
2021/03/09 06:24:47;;;;;;;28.05;14.27;;;0.10;81.50;;;;;;5004593;28;20255;-80
2021/03/09 06:27:30;;;;;;;22.92;15.32;;;0.10;81.40;;;;;;4997198;28;20212;-80
2021/03/09 06:29:58;;;;;;;23.60;13.93;;;0.20;81.50;;;;;;4996600;28;20192;-81
2021/03/09 06:32:25;;;;;;;26.67;14.85;;;0.30;80.70;;;;;;5005459;28;20319;-80
2021/03/09 06:34:53;;;;;;;27.35;14.50;;;0.20;79.50;;;;;;5018428;28;20330;-79
2021/03/09 06:37:22;;;;;;;22.80;15.57;;;0.20;79.50;;;;;;5024616;28;20236;-81
2021/03/09 06:39:51;;;;;;;26.30;14.73;;;0.20;79.40;;;;;;5030694;28;20212;-79
2021/03/09 06:42:19;;;;;;;26.67;15.13;;;0.20;79.50;;;;;;5033078;28;20254;-82
2021/03/09 06:44:55;;;;;;;24.25;13.90;;;0.20;78.80;;;;;;5034972;28;20224;-79
2021/03/09 06:47:39;;;;;;;21.90;14.98;;;0.30;78.80;;;;;;5019854;28;20322;-80
2021/03/09 06:50:10;;;;;;;24.33;14.50;;;0.40;78.20;;;;;;5020273;28;20648;-79
2021/03/09 06:52:37;;;;;;;25.02;14.30;;;0.40;77.50;;;;;;5020476;28;20466;-79
2021/03/09 06:55:06;;;;;;;24.52;15.32;;;0.50;77.60;;;;;;5023850;28;20635;-81
2021/03/09 06:57:32;;;;;;;28.83;16.38;;;0.60;77.20;;;;;;5023754;28;20255;-82
2021/03/09 06:59:59;;;;;;;25.73;14.90;;;0.60;76.00;;;;;;5001004;28;20212;-80
2021/03/09 07:02:27;;;;;;;32.25;16.90;;;0.70;75.40;;;;;;5047992;23;20247;-78
2021/03/09 07:04:54;;;;;;;23.40;15.27;;;0.70;74.70;;;;;;5046226;28;20272;-76
2021/03/09 07:07:29;;;;;;;31.65;15.27;;;0.70;74.80;;;;;;5042380;28;20222;-76
2021/03/09 07:09:58;;;;;;;31.05;16.20;;;0.70;74.20;;;;;;5042429;28;20257;-76
2021/03/09 07:12:26;;;;;;;29.67;16.63;;;0.70;74.30;;;;;;5044238;28;20579;-77
2021/03/09 07:14:53;;;;;;;26.95;15.82;;;0.90;73.90;;;;;;5047605;28;20207;-78
2021/03/09 07:17:23;;;;;;;30.70;16.30;;;1.10;74.10;;;;;;5049995;28;20250;-77
2021/03/09 07:19:50;;;;;;;26.35;16.73;;;1.20;73.00;;;;;;5050283;28;20246;-76
2021/03/09 07:22:19;;;;;;;27.33;15.35;;;1.30;71.10;;;;;;5045744;28;20321;-77
2021/03/09 07:25:04;;;;;;;22.55;15.20;;;1.40;71.00;;;;;;5040489;28;20230;-77
2021/03/09 07:27:37;;;;;;;26.27;14.80;;;1.50;70.00;;;;;;5037086;28;20203;-77
2021/03/09 07:30:06;;;;;;;26.35;16.30;;;1.70;68.60;;;;;;5028327;28;20204;-76
2021/03/09 07:32:33;;;;;;;24.20;15.27;;;1.70;67.00;;;;;;5017406;28;20259;-77
2021/03/09 07:35:01;;;;;;;24.52;14.90;;;1.80;66.30;;;;;;5018545;28;20247;-76
2021/03/09 07:37:28;;;;;;;19.38;14.65;;;2.00;65.90;;;;;;5019893;28;20246;-79
2021/03/09 07:39:56;;;;;;;23.52;14.77;;;2.00;64.70;;;;;;5034633;28;20234;-79
2021/03/09 07:42:24;;;;;;;23.75;14.50;;;2.00;64.80;;;;;;5039377;28;20286;-76
2021/03/09 07:44:50;;;;;;;21.60;14.60;;;2.20;63.70;;;;;;5036749;28;20207;-77
2021/03/09 07:47:19;;;;;;;24.75;15.48;;;2.10;63.20;;;;;;5037531;28;20253;-76
2021/03/09 07:49:47;;;;;;;31.02;16.02;;;2.20;62.20;;;;;;5035549;28;20199;-78
2021/03/09 07:52:15;;;;;;;22.35;14.75;;;2.20;62.30;;;;;;5035194;28;20207;-79
2021/03/09 07:55:16;;;;;;;25.88;15.43;;;2.30;62.70;;;;;;5038924;28;20232;-77
2021/03/09 07:57:43;;;;;;;24.05;14.25;;;2.40;62.10;;;;;;5049625;28;20223;-78
2021/03/09 08:00:12;;;;;;;20.42;14.00;;;2.60;61.30;;;;;;5041460;28;20218;-79
2021/03/09 08:02:47;;;;;;;22.40;14.07;;;2.60;60.90;;;;;;5036468;28;20603;-77
2021/03/09 08:05:17;;;;;;;28.33;15.23;;;2.50;59.90;;;;;;5036977;28;20721;-79
2021/03/09 08:08:05;;;;;;;23.08;14.55;;;2.40;61.40;;;;;;5036702;28;20203;-78
2021/03/09 08:10:47;;;;;;;23.00;14.00;;;2.80;60.40;;;;;;5037372;28;20242;-78
2021/03/09 08:13:23;;;;;;;26.95;15.68;;;3.00;59.70;;;;;;5039597;28;20366;-79
2021/03/09 08:15:50;;;;;;;19.85;12.65;;;3.20;57.90;;;;;;5041497;28;20210;-77
2021/03/09 08:18:42;;;;;;;22.30;15.05;;;3.20;56.90;;;;;;5040616;28;20314;-78
2021/03/09 08:21:10;;;;;;;21.98;13.82;;;3.30;56.00;;;;;;5042604;28;20206;-80
2021/03/09 08:23:55;;;;;;;26.23;15.38;;;3.40;55.80;;;;;;5035231;28;20227;-78
2021/03/09 08:26:50;;;;;;;27.33;14.57;;;3.50;55.80;;;;;;5026201;28;20208;-78
2021/03/09 08:29:40;;;;;;;20.98;14.48;;;3.60;54.90;;;;;;5016693;28;20211;-77
2021/03/09 08:32:38;;;;;;;24.40;14.00;;;3.60;54.60;;;;;;5005899;28;20218;-78
2021/03/09 08:35:34;;;;;;;24.80;14.82;;;3.80;54.30;;;;;;5015746;28;20212;-78
2021/03/09 08:38:16;;;;;;;25.63;15.02;;;4.00;54.50;;;;;;5018678;28;20223;-78
2021/03/09 08:41:10;;;;;;;27.13;14.73;;;3.60;54.10;;;;;;5020947;28;20235;-78
2021/03/09 08:43:39;;;;;;;19.83;14.52;;;3.80;54.30;;;;;;5018345;28;20327;-77
2021/03/09 08:46:07;;;;;;;24.35;14.32;;;4.10;53.30;;;;;;5019239;28;20219;-77
2021/03/09 08:48:58;;;;;;;21.77;15.35;;;4.20;51.80;;;;;;5024405;28;20208;-76
2021/03/09 08:51:49;;;;;;;21.20;13.82;;;4.30;52.50;;;;;;5024790;28;20270;-76
2021/03/09 08:54:31;;;;;;;23.10;16.20;;;4.50;51.10;;;;;;5028359;28;20231;-78
2021/03/09 08:57:00;;;;;;;20.08;14.40;;;4.60;51.10;;;;;;5032768;28;20231;-77
2021/03/09 08:59:27;;;;;;;21.00;15.30;;;4.70;50.40;;;;;;5031654;28;20582;-76
2021/03/09 09:02:07;;;;;;;22.15;14.02;;;4.70;50.50;;;;;;5034265;28;20257;-77
2021/03/09 09:04:33;;;;;;;35.47;15.57;;;4.50;50.20;;;;;;5033840;28;20231;-76
2021/03/09 09:07:00;;;;;;;20.10;14.05;;;4.30;50.00;;;;;;5033038;28;20199;-77
2021/03/09 09:09:34;;;;;;;24.65;14.50;;;4.40;50.90;;;;;;5027470;28;20218;-78
2021/03/09 09:12:19;;;;;;;22.70;15.02;;;4.80;50.50;;;;;;5029054;28;20215;-77
2021/03/09 09:14:46;;;;;;;23.27;13.98;;;5.20;48.80;;;;;;5029702;28;20611;-77
2021/03/09 09:17:12;;;;;;;19.90;14.55;;;5.00;47.80;;;;;;5031659;28;20228;-77
2021/03/09 09:19:38;;;;;;;22.55;14.75;;;4.50;49.70;;;;;;5032383;28;20208;-76
2021/03/09 09:22:05;;;;;;;25.92;16.95;;;4.60;49.90;;;;;;5032942;28;20199;-76
2021/03/09 09:24:32;;;;;;;23.95;15.15;;;5.00;48.80;;;;;;5032682;28;20215;-77
2021/03/09 09:27:00;;;;;;;40.97;20.08;;;4.70;48.70;;;;;;5027803;28;20204;-75
2021/03/09 09:29:27;;;;;;;19.38;13.63;;;5.10;47.90;;;;;;5019873;28;20208;-76
2021/03/09 09:32:01;;;;;;;22.67;14.90;;;4.80;48.50;;;;;;5019918;28;20664;-77
2021/03/09 09:34:37;;;;;;;18.48;13.75;;;4.90;49.00;;;;;;5025083;28;20239;-76
2021/03/09 09:37:15;;;;;;;18.80;13.63;;;5.50;47.30;;;;;;5034949;28;20223;-78
2021/03/09 09:39:43;;;;;;;17.48;13.10;;;6.20;46.30;;;;;;5029926;28;20207;-77
2021/03/09 09:42:14;;;;;;;22.00;14.40;;;6.50;43.00;;;;;;5027209;28;20254;-78
2021/03/09 09:44:41;;;;;;;18.60;13.55;;;6.70;42.50;;;;;;5021274;28;20262;-77
2021/03/09 09:47:09;;;;;;;18.75;13.05;;;6.70;42.00;;;;;;5021559;28;20200;-77
2021/03/09 09:49:38;;;;;;;16.60;11.77;;;6.90;41.10;;;;;;5020524;28;20298;-76
2021/03/09 09:52:14;;;;;;;17.42;11.98;;;7.10;40.10;;;;;;5020325;28;20572;-76
2021/03/09 09:54:50;;;;;;;15.48;12.23;;;7.00;40.00;;;;;;5035642;28;20222;-77
2021/03/09 09:57:17;;;;;;;15.38;11.48;;;7.10;38.50;;;;;;5035310;28;20232;-77
2021/03/09 09:59:43;;;;;;;19.13;12.48;;;7.30;38.30;;;;;;5035991;28;20492;-76
2021/03/09 10:02:23;;;;;;;20.63;13.15;;;7.60;38.40;;;;;;5032312;28;20215;-75
2021/03/09 10:04:50;;;;;;;17.27;12.90;;;6.70;40.70;;;;;;5019001;28;20263;-80
2021/03/09 10:07:19;;;;;;;19.55;14.20;;;7.00;40.00;;;;;;5020186;28;20668;-76
2021/03/09 10:10:05;;;;;;;20.00;15.48;;;7.30;39.20;;;;;;5021827;28;20211;-76
2021/03/09 10:12:33;;;;;;;20.02;14.75;;;6.70;40.70;;;;;;5022673;28;20232;-76
2021/03/09 10:15:00;;;;;;;20.55;14.75;;;6.50;41.50;;;;;;5027343;28;20298;-76
2021/03/09 10:17:26;;;;;;;19.92;13.90;;;6.90;40.90;;;;;;5023295;28;20227;-76
2021/03/09 10:19:54;;;;;;;19.00;14.60;;;7.00;39.40;;;;;;5021330;28;20208;-77
2021/03/09 10:22:21;;;;;;;18.50;14.55;;;7.10;39.90;;;;;;5026929;28;20203;-75
2021/03/09 10:24:48;;;;;;;19.13;13.18;;;7.30;38.90;;;;;;5030991;28;20260;-76
2021/03/09 10:27:17;;;;;;;18.05;13.35;;;7.30;39.10;;;;;;5033202;28;20231;-77
2021/03/09 10:29:43;;;;;;;21.25;14.27;;;7.50;38.60;;;;;;5034034;28;20292;-77
2021/03/09 10:32:15;;;;;;;19.02;13.45;;;7.10;39.70;;;;;;5032265;28;20208;-75
2021/03/09 10:34:43;;;;;;;16.98;12.75;;;6.70;41.40;;;;;;5032914;28;20222;-77
2021/03/09 10:37:11;;;;;;;19.02;13.45;;;7.40;39.90;;;;;;5029789;28;20315;-77
2021/03/09 10:39:40;;;;;;;19.10;12.30;;;7.90;38.70;;;;;;5030431;28;20227;-77
2021/03/09 10:42:30;;;;;;;18.05;12.52;;;7.80;38.60;;;;;;5030232;28;20238;-77
2021/03/09 10:44:58;;;;;;;17.58;13.13;;;7.60;38.40;;;;;;5033909;28;20168;-77
2021/03/09 10:47:24;;;;;;;19.27;12.57;;;7.40;38.30;;;;;;5036242;28;20272;-77
2021/03/09 10:49:51;;;;;;;20.38;13.13;;;7.60;38.40;;;;;;5036701;28;20187;-76
2021/03/09 10:52:18;;;;;;;20.17;13.57;;;8.00;37.30;;;;;;5036398;28;20340;-77
2021/03/09 10:54:44;;;;;;;18.10;13.90;;;8.40;36.80;;;;;;5035849;28;20208;-77
2021/03/09 10:57:11;;;;;;;17.73;13.45;;;8.30;36.00;;;;;;5036168;28;20255;-76
2021/03/09 10:59:39;;;;;;;20.67;14.88;;;8.00;37.80;;;;;;5033966;28;20240;-76
2021/03/09 11:02:09;;;;;;;18.90;13.70;;;8.40;36.70;;;;;;5028685;28;20696;-75
2021/03/09 11:04:36;;;;;;;18.90;13.23;;;8.50;35.90;;;;;;5025570;28;20212;-77
2021/03/09 11:07:03;;;;;;;20.20;14.32;;;7.90;38.70;;;;;;5026086;28;20250;-77
2021/03/09 11:09:30;;;;;;;19.33;13.63;;;8.20;37.90;;;;;;5029108;28;20215;-76
2021/03/09 11:11:56;;;;;;;19.65;12.70;;;8.20;37.70;;;;;;5027109;28;20207;-77
2021/03/09 11:14:23;;;;;;;17.08;13.18;;;8.50;36.60;;;;;;5024572;28;20231;-79
2021/03/09 11:16:50;;;;;;;18.17;13.73;;;8.50;36.40;;;;;;5031593;28;20227;-77
2021/03/09 11:19:16;;;;;;;19.48;13.95;;;7.70;38.50;;;;;;5028955;28;20211;-77
2021/03/09 11:21:43;;;;;;;21.20;15.02;;;7.70;38.50;;;;;;5022631;28;20211;-77
2021/03/09 11:24:10;;;;;;;18.60;14.23;;;7.40;39.40;;;;;;5022657;28;20587;-77
2021/03/09 11:26:37;;;;;;;20.05;13.30;;;7.30;38.80;;;;;;5021442;28;20203;-78
2021/03/09 11:29:04;;;;;;;18.50;13.88;;;7.50;38.30;;;;;;5022447;28;20676;-77
2021/03/09 11:31:31;;;;;;;17.25;13.77;;;7.80;37.60;;;;;;5022759;28;20222;-77
2021/03/09 11:33:58;;;;;;;19.63;13.63;;;7.60;38.40;;;;;;5024436;28;20242;-78
2021/03/09 11:36:25;;;;;;;16.75;13.60;;;7.20;38.10;;;;;;5027794;28;20224;-78
2021/03/09 11:38:52;;;;;;;19.55;13.48;;;7.40;38.20;;;;;;5025973;28;20263;-79
2021/03/09 11:41:20;;;;;;;18.65;13.05;;;7.60;38.40;;;;;;5021816;28;20208;-78
2021/03/09 11:43:47;;;;;;;17.38;12.55;;;7.60;38.40;;;;;;5022495;28;20228;-79
2021/03/09 11:46:14;;;;;;;21.88;13.45;;;7.80;37.90;;;;;;5022425;28;20214;-77
2021/03/09 11:48:41;;;;;;;16.08;12.85;;;8.10;36.90;;;;;;5022561;28;20257;-76
2021/03/09 11:51:08;;;;;;;19.10;12.23;;;8.50;35.80;;;;;;5023115;28;20208;-76
2021/03/09 11:53:36;;;;;;;17.70;13.85;;;8.70;34.60;;;;;;5022602;28;20579;-76
2021/03/09 11:56:02;;;;;;;16.85;11.52;;;8.70;34.40;;;;;;5025640;28;20659;-77
2021/03/09 11:58:29;;;;;;;16.92;11.63;;;8.40;35.30;;;;;;5027827;28;20196;-79
2021/03/09 12:00:55;;;;;;;17.08;12.25;;;8.10;36.10;;;;;;5028857;28;20215;-77
2021/03/09 12:03:22;;;;;;;15.70;12.02;;;8.30;35.70;;;;;;5030507;28;20267;-76
2021/03/09 12:05:49;;;;;;;21.30;13.40;;;8.50;35.30;;;;;;5031423;28;20238;-77
2021/03/09 12:08:16;;;;;;;16.40;12.32;;;8.60;34.80;;;;;;5027499;28;20219;-77
2021/03/09 12:10:43;;;;;;;15.93;12.07;;;8.30;35.40;;;;;;5027357;28;20223;-78
2021/03/09 12:13:09;;;;;;;18.05;12.55;;;8.50;35.90;;;;;;5033058;28;20239;-76
2021/03/09 12:15:36;;;;;;;16.75;11.50;;;8.80;34.30;;;;;;5032284;28;20239;-77
2021/03/09 12:18:02;;;;;;;16.00;12.02;;;8.90;33.80;;;;;;5031817;28;20249;-77
2021/03/09 12:20:29;;;;;;;17.65;13.10;;;8.80;34.40;;;;;;5031999;28;20216;-77
2021/03/09 12:22:56;;;;;;;15.35;12.18;;;8.80;34.10;;;;;;5032765;28;20261;-79
2021/03/09 12:25:24;;;;;;;13.68;11.70;;;9.20;33.00;;;;;;5033139;28;20204;-78
2021/03/09 12:27:50;;;;;;;20.05;12.02;;;9.20;32.30;;;;;;5031788;28;20207;-79
2021/03/09 12:30:18;;;;;;;15.50;12.13;;;8.70;33.80;;;;;;5030495;28;20195;-78
2021/03/09 12:32:44;;;;;;;15.38;12.32;;;8.70;33.70;;;;;;5032011;28;20232;-77
2021/03/09 12:35:12;;;;;;;14.13;11.60;;;9.10;32.80;;;;;;5032092;28;20208;-77
2021/03/09 12:37:39;;;;;;;15.13;12.23;;;8.70;33.50;;;;;;5031250;28;20235;-79
2021/03/09 12:40:07;;;;;;;15.60;10.50;;;9.10;33.00;;;;;;5033085;28;20238;-78
2021/03/09 12:42:35;;;;;;;12.77;9.90;;;9.50;31.50;;;;;;5032061;28;20228;-78
2021/03/09 12:45:03;;;;;;;14.10;10.57;;;9.70;30.20;;;;;;5030268;28;20211;-78
2021/03/09 12:47:29;;;;;;;15.23;10.90;;;9.50;30.50;;;;;;5029233;28;20218;-77